Blue River, Oregon
Current Conditions -  °F | °C
As of 6:54 PM on Tuesday 21 Oct 2014 (Local Time) from KEUG Reporting Station
Overcast Overcast  
Wind Chill: 59°   Ceiling: 8500
Heat Index: 59°   Visibility: 10mi
Dew Point: 47°   Wind: 8mph
Humidity: 64%   Direction: 160°SSE
Pressure: 29.94"   Gusts: NA
Location:  44.15°N, 122.34°W
Report Text: KEUG 220154Z 16007KT 10SM BKN085 OVC170 15/08 A2994 RMK AO2 SLP136 T01500083
Loading
Personal Weather Stations






























Interactive Weather Map
Tropical Storm Tracking
New forecast layout! Learn more

10-Day Weather Forecast

Advertisements
Track Severe Weather on mobile